Time;durP1;ratioP1;P1;durP2;ratioP2;P2;SDS_P1;SDS_P2;PMS_P1;PMS_P2;Temp;Humidity;BMP_temperature;BMP_pressure;BME280_temperature;BME280_humidity;BME280_pressure;Samples;Min_cycle;Max_cycle;Signal;HPM_P1;HPM_P2
2023/03/10 00:01:31;;;;;;;14.18;8.13;;;;;;;8.60;64.85;98667.16;4892467;28;123885;-71
2023/03/10 00:04:00;;;;;;;12.55;8.18;;;;;;;8.62;64.81;98681.06;4889962;28;115792;-71
2023/03/10 00:06:31;;;;;;;12.23;8.25;;;;;;;8.64;64.72;98678.31;4891589;28;114616;-70
2023/03/10 00:08:59;;;;;;;12.82;7.90;;;;;;;8.65;65.04;98683.50;4887270;28;124540;-71
2023/03/10 00:11:27;;;;;;;13.45;7.35;;;;;;;8.65;64.96;98680.84;4892100;28;123745;-71
2023/03/10 00:13:54;;;;;;;11.85;7.53;;;;;;;8.68;64.99;98685.06;4892877;28;114503;-70
2023/03/10 00:16:24;;;;;;;13.15;7.15;;;;;;;8.68;64.88;98685.94;4889447;28;113769;-70
2023/03/10 00:18:52;;;;;;;17.83;7.20;;;;;;;8.68;64.98;98680.66;4888899;28;123568;-71
2023/03/10 00:21:23;;;;;;;12.43;7.07;;;;;;;8.68;64.88;98685.94;4891295;28;123755;-71
2023/03/10 00:23:51;;;;;;;11.18;6.78;;;;;;;8.69;64.68;98677.03;4883548;28;113424;-71
2023/03/10 00:26:19;;;;;;;12.40;6.90;;;;;;;8.70;64.80;98668.19;4892673;28;113514;-71
2023/03/10 00:28:47;;;;;;;9.88;6.72;;;;;;;8.71;64.85;98664.56;4892001;28;124774;-71
2023/03/10 00:31:16;;;;;;;8.65;5.97;;;;;;;8.71;64.59;98664.56;4891823;28;125019;-71
2023/03/10 00:33:44;;;;;;;10.45;6.50;;;;;;;8.70;64.58;98670.81;4888519;28;114434;-71
2023/03/10 00:36:23;;;;;;;8.73;6.15;;;;;;;8.69;64.62;98671.75;4888956;28;114316;-71
2023/03/10 00:38:52;;;;;;;8.25;5.88;;;;;;;8.70;64.72;98673.47;4887317;28;124896;-71
2023/03/10 00:41:21;;;;;;;9.10;5.80;;;;;;;8.73;64.57;98675.84;4891803;28;123876;-71
2023/03/10 00:43:49;;;;;;;9.65;6.07;;;;;;;8.74;64.13;98664.38;4889123;28;115530;-71
2023/03/10 00:46:17;;;;;;;9.85;5.95;;;;;;;8.76;64.45;98672.19;4890791;28;114139;-72
2023/03/10 00:48:44;;;;;;;9.02;6.07;;;;;;;8.79;64.71;98676.38;4891214;28;123857;-71
2023/03/10 00:51:11;;;;;;;10.63;6.22;;;;;;;8.79;64.41;98671.94;4891542;28;124068;-71
2023/03/10 00:53:39;;;;;;;9.25;5.88;;;;;;;8.81;64.49;98675.31;4892109;28;115887;-71
2023/03/10 00:56:12;;;;;;;9.48;6.18;;;;;;;8.81;64.39;98675.31;4872021;28;114296;-71
2023/03/10 00:58:40;;;;;;;9.07;5.90;;;;;;;8.81;64.22;98669.19;4887735;28;123811;-71
2023/03/10 01:01:18;;;;;;;10.07;6.53;;;;;;;8.80;64.24;98673.63;4886783;28;122781;-71
2023/03/10 01:03:46;;;;;;;11.82;6.60;;;;;;;8.81;64.02;98669.19;4888303;28;113916;-70
2023/03/10 01:06:13;;;;;;;10.68;6.10;;;;;;;8.81;64.07;98666.53;4884036;28;112732;-71
2023/03/10 01:08:41;;;;;;;9.05;6.07;;;;;;;8.82;64.23;98670.88;4889553;28;124583;-71
2023/03/10 01:11:08;;;;;;;8.85;6.05;;;;;;;8.81;64.13;98677.09;4890105;28;123466;-71
2023/03/10 01:13:35;;;;;;;8.80;5.80;;;;;;;8.83;64.39;98672.56;4889331;28;114858;-71
2023/03/10 01:16:02;;;;;;;10.20;6.45;;;;;;;8.84;64.20;98685.66;4890539;28;113497;-71
2023/03/10 01:18:29;;;;;;;12.57;7.05;;;;;;;8.87;64.08;98676.66;4888420;28;123699;-71
2023/03/10 01:20:57;;;;;;;13.45;7.03;;;;;;;8.88;64.30;98686.28;4888647;28;124178;-71
2023/03/10 01:23:26;;;;;;;14.73;7.93;;;;;;;8.89;64.30;98677.38;4889248;28;113913;-71
2023/03/10 01:25:53;;;;;;;13.30;8.07;;;;;;;8.89;64.30;98677.38;4871319;28;112877;-71
2023/03/10 01:28:21;;;;;;;17.55;8.52;;;;;;;8.89;64.31;98677.38;4884912;28;123832;-71
2023/03/10 01:30:48;;;;;;;14.40;8.38;;;;;;;8.90;64.18;98669.34;4880670;28;124038;-71
2023/03/10 01:33:17;;;;;;;17.20;9.10;;;;;;;8.91;64.26;98664.91;4892104;28;114052;-71
2023/03/10 01:35:44;;;;;;;14.18;8.40;;;;;;;8.92;64.26;98661.31;4891340;28;114621;-71
2023/03/10 01:38:11;;;;;;;15.15;9.27;;;;;;;8.92;63.91;98656.03;4889369;28;123106;-71
2023/03/10 01:40:39;;;;;;;15.27;9.32;;;;;;;8.91;64.20;98643.78;4873836;28;123446;-71
2023/03/10 01:43:24;;;;;;;11.70;8.32;;;;;;;8.92;64.41;98640.22;4886341;28;115542;-71
2023/03/10 01:45:51;;;;;;;12.20;7.88;;;;;;;8.93;64.36;98650.66;4887197;28;114645;-71
2023/03/10 01:48:21;;;;;;;12.82;7.65;;;;;;;8.95;64.38;98650.56;4874550;28;123383;-71
2023/03/10 01:50:52;;;;;;;13.05;8.45;;;;;;;8.96;64.17;98637.22;4889126;28;123701;-71
2023/03/10 01:53:21;;;;;;;12.85;7.50;;;;;;;8.99;64.16;98636.16;4888817;28;114513;-71
2023/03/10 01:55:55;;;;;;;14.07;8.52;;;;;;;9.01;64.26;98639.53;4888538;28;113888;-71
2023/03/10 01:58:29;;;;;;;12.32;7.60;;;;;;;9.01;64.21;98639.53;4887080;28;123931;-71
2023/03/10 02:00:56;;;;;;;11.73;7.57;;;;;;;9.03;63.96;98642.91;4901596;28;123538;-71
2023/03/10 02:03:28;;;;;;;13.57;8.25;;;;;;;9.04;64.18;98634.03;4891502;28;114625;-71
2023/03/10 02:06:04;;;;;;;12.52;8.25;;;;;;;9.05;63.94;98640.16;4891159;28;114555;-71
2023/03/10 02:08:36;;;;;;;12.68;7.60;;;;;;;9.06;64.17;98636.53;4887702;28;123615;-71
2023/03/10 02:11:04;;;;;;;12.73;7.90;;;;;;;9.06;64.37;98632.13;4888265;28;124509;-71
2023/03/10 02:13:34;;;;;;;14.13;8.52;;;;;;;9.07;64.25;98627.66;4885432;28;113392;-72
2023/03/10 02:16:04;;;;;;;13.23;8.40;;;;;;;9.08;64.24;98619.63;4886603;28;112616;-72
2023/03/10 02:18:32;;;;;;;13.25;8.10;;;;;;;9.09;63.94;98620.47;4876673;28;123699;-70
2023/03/10 02:21:18;;;;;;;13.65;8.15;;;;;;;9.09;64.19;98623.94;4890673;28;124305;-70
2023/03/10 02:23:57;;;;;;;;;;;;;;;9.06;64.06;98616.28;4889911;28;113810;-70
2023/03/10 02:26:45;;;;;;;11.30;7.30;;;;;;;9.05;64.21;98619.84;4890544;28;114141;-70
2023/03/10 02:29:21;;;;;;;13.50;8.13;;;;;;;9.05;63.90;98625.13;4870146;28;123101;-70
2023/03/10 02:31:49;;;;;;;12.30;7.97;;;;;;;9.08;64.05;98624.91;4887889;28;123520;-70
2023/03/10 02:34:17;;;;;;;12.52;8.27;;;;;;;9.08;64.06;98619.63;4888609;28;115328;-70
2023/03/10 02:36:45;;;;;;;12.82;8.40;;;;;;;9.11;64.17;98616.75;4887341;28;115435;-70
2023/03/10 02:39:12;;;;;;;12.73;8.18;;;;;;;9.13;64.17;98606.91;4888936;28;123032;-70
2023/03/10 02:41:39;;;;;;;12.73;8.48;;;;;;;9.15;64.40;98605.03;4888255;28;124203;-70
2023/03/10 02:44:15;;;;;;;14.02;8.40;;;;;;;9.19;64.07;98607.41;4886613;28;113816;-69
2023/03/10 02:46:42;;;;;;;12.63;8.07;;;;;;;9.20;64.37;98601.19;4902986;28;113257;-70
2023/03/10 02:49:09;;;;;;;12.48;8.70;;;;;;;9.22;64.28;98594.00;4890940;28;124336;-70
2023/03/10 02:51:45;;;;;;;12.20;8.05;;;;;;;9.23;64.29;98596.53;4889931;28;123923;-70
2023/03/10 02:54:15;;;;;;;13.52;8.27;;;;;;;9.26;64.31;98595.44;4890504;28;114569;-70
2023/03/10 02:56:44;;;;;;;12.02;7.93;;;;;;;9.29;64.52;98595.22;4894438;28;114332;-69
2023/03/10 02:59:12;;;;;;;14.65;7.93;;;;;;;9.31;64.45;98588.00;4876105;28;123819;-70
2023/03/10 03:01:44;;;;;;;12.88;8.18;;;;;;;9.32;64.39;98584.41;4888072;28;122431;-69
2023/03/10 03:04:12;;;;;;;16.10;8.27;;;;;;;9.34;64.49;98577.19;4886909;28;113815;-70
2023/03/10 03:06:39;;;;;;;13.45;8.13;;;;;;;9.34;64.41;98577.19;4904476;28;113243;-70
2023/03/10 03:09:07;;;;;;;13.70;7.90;;;;;;;9.35;64.37;98569.16;4890383;28;123511;-70
2023/03/10 03:11:34;;;;;;;14.48;8.50;;;;;;;9.35;64.16;98563.03;4884795;28;123208;-70
2023/03/10 03:14:03;;;;;;;13.68;8.32;;;;;;;9.37;64.18;98571.69;4888082;28;113405;-70
2023/03/10 03:16:31;;;;;;;11.77;7.55;;;;;;;9.35;64.26;98568.31;4891626;28;113188;-70
2023/03/10 03:19:01;;;;;;;12.57;7.90;;;;;;;9.35;64.10;98568.31;4885797;28;125026;-70
2023/03/10 03:21:30;;;;;;;12.15;7.97;;;;;;;9.36;64.15;98570.00;4883387;28;123549;-70
2023/03/10 03:23:58;;;;;;;13.77;7.85;;;;;;;9.34;64.24;98566.63;4889104;28;114270;-70
2023/03/10 03:26:26;;;;;;;13.57;8.80;;;;;;;9.33;64.17;98565.78;4888389;28;114363;-70
2023/03/10 03:28:59;;;;;;;13.00;8.00;;;;;;;9.33;64.28;98570.25;4890309;28;125624;-70
2023/03/10 03:31:30;;;;;;;13.52;8.80;;;;;;;9.32;64.05;98573.81;4891662;28;124012;-70
2023/03/10 03:34:06;;;;;;;13.68;7.93;;;;;;;9.30;64.20;98570.47;4892096;28;113697;-70
2023/03/10 03:36:34;;;;;;;17.48;8.95;;;;;;;9.29;64.19;98569.63;4891345;28;114760;-70
2023/03/10 03:39:01;;;;;;;12.63;8.70;;;;;;;9.28;64.24;98569.75;4886266;28;123708;-70
2023/03/10 03:41:31;;;;;;;11.27;7.53;;;;;;;9.28;64.20;98567.09;4891477;28;124144;-70
2023/03/10 03:43:58;;;;;;;13.13;7.75;;;;;;;9.29;64.01;98571.44;4887000;28;114514;-70
2023/03/10 03:46:25;;;;;;;13.07;8.15;;;;;;;9.31;64.07;98566.88;4889272;28;113633;-70
2023/03/10 03:48:52;;;;;;;13.15;8.85;;;;;;;9.31;64.33;98566.88;4882307;28;124347;-70
2023/03/10 03:51:20;;;;;;;13.10;8.35;;;;;;;9.31;64.25;98566.88;4888212;28;123329;-70
2023/03/10 03:53:47;;;;;;;13.88;8.55;;;;;;;9.30;63.96;98565.19;4885057;28;113826;-70
2023/03/10 03:56:14;;;;;;;15.65;8.45;;;;;;;9.29;64.09;98558.22;4887509;28;113594;-70
2023/03/10 03:58:43;;;;;;;13.30;8.57;;;;;;;9.28;64.07;98561.81;4886761;28;123965;-69
2023/03/10 04:01:11;;;;;;;13.45;8.75;;;;;;;9.27;64.13;98560.16;4882098;28;123295;-70
2023/03/10 04:03:43;;;;;;;13.45;8.45;;;;;;;9.26;63.92;98564.56;4886278;28;113975;-70
2023/03/10 04:06:14;;;;;;;13.23;8.57;;;;;;;9.26;64.10;98563.75;4889196;28;114590;-70
2023/03/10 04:08:42;;;;;;;13.43;8.38;;;;;;;9.25;64.08;98559.41;4886103;28;124254;-70
2023/03/10 04:11:09;;;;;;;16.27;8.45;;;;;;;9.26;64.04;98563.75;4879780;28;122864;-70
2023/03/10 04:13:40;;;;;;;13.15;8.38;;;;;;;9.25;64.21;98559.41;4889402;28;114576;-70
2023/03/10 04:16:08;;;;;;;15.02;8.85;;;;;;;9.24;64.03;98560.38;4888755;28;114555;-70
2023/03/10 04:18:37;;;;;;;12.55;8.15;;;;;;;9.22;64.19;98551.72;4900709;28;123335;-70
2023/03/10 04:21:05;;;;;;;13.05;8.43;;;;;;;9.22;63.95;98557.03;4888350;28;123808;-70
2023/03/10 04:23:33;;;;;;;14.23;7.95;;;;;;;9.21;64.25;98555.31;4886724;28;113418;-70
2023/03/10 04:26:00;;;;;;;14.10;8.23;;;;;;;9.21;64.06;98560.59;4886090;28;113711;-70
2023/03/10 04:28:29;;;;;;;14.55;8.15;;;;;;;9.21;64.05;98550.03;4892179;28;123220;-70
2023/03/10 04:30:56;;;;;;;13.02;8.15;;;;;;;9.23;64.08;98542.84;4891595;28;124682;-70
2023/03/10 04:33:27;;;;;;;12.50;8.30;;;;;;;9.23;64.41;98553.41;4892339;28;113314;-70
2023/03/10 04:35:54;;;;;;;13.73;7.72;;;;;;;9.21;64.10;98556.19;4898086;28;113598;-72
2023/03/10 04:38:23;;;;;;;14.18;7.88;;;;;;;9.22;64.31;98559.66;4888599;28;124190;-70
2023/03/10 04:40:57;;;;;;;12.07;8.02;;;;;;;9.20;63.89;98545.72;4889525;28;124266;-70
2023/03/10 04:43:28;;;;;;;10.50;7.30;;;;;;;9.20;64.25;98543.09;4888181;28;113437;-70
2023/03/10 04:45:57;;;;;;;10.48;7.30;;;;;;;9.19;64.37;98541.41;4891502;28;113947;-70
2023/03/10 04:48:24;;;;;;;12.82;8.07;;;;;;;9.20;64.42;98543.09;4892111;28;123859;-70
2023/03/10 04:51:00;;;;;;;12.07;8.05;;;;;;;9.20;64.43;98543.91;4891604;28;123901;-70
2023/03/10 04:53:31;;;;;;;11.98;7.40;;;;;;;9.21;64.29;98540.34;4890801;28;113629;-70
2023/03/10 04:56:01;;;;;;;10.55;6.57;;;;;;;9.24;64.39;98534.81;4890534;28;113196;-70
2023/03/10 04:58:30;;;;;;;12.00;7.22;;;;;;;9.26;64.33;98532.03;4887773;28;123290;-70
2023/03/10 05:00:57;;;;;;;10.48;7.43;;;;;;;9.25;64.39;98520.66;4887777;28;124003;-70
2023/03/10 05:03:31;;;;;;;12.02;7.05;;;;;;;9.27;64.29;98528.47;4890193;28;114871;-70
2023/03/10 05:05:58;;;;;;;11.63;6.90;;;;;;;9.28;64.25;98519.56;4893424;28;114681;-70
2023/03/10 05:08:26;;;;;;;15.18;7.20;;;;;;;9.30;64.21;98522.91;4892170;28;123563;-69
2023/03/10 05:10:53;;;;;;;11.77;7.15;;;;;;;9.30;64.19;98522.91;4888478;28;124814;-70
2023/03/10 05:13:21;;;;;;;12.05;7.80;;;;;;;9.30;64.28;98522.91;4892524;28;113544;-69
2023/03/10 05:15:48;;;;;;;11.30;6.72;;;;;;;9.31;64.14;98524.63;4891422;28;114344;-70
2023/03/10 05:18:15;;;;;;;12.32;6.72;;;;;;;9.31;64.19;98529.91;4888263;28;125372;-70
2023/03/10 05:20:42;;;;;;;10.13;7.10;;;;;;;9.30;64.12;98528.19;4890078;28;124677;-70
2023/03/10 05:23:10;;;;;;;11.13;6.60;;;;;;;9.30;64.17;98515.84;4872592;28;113487;-70
2023/03/10 05:25:38;;;;;;;10.30;6.85;;;;;;;9.28;64.10;98514.28;4872040;28;113317;-71
2023/03/10 05:28:06;;;;;;;10.32;6.38;;;;;;;9.28;64.03;98517.75;4889619;28;122475;-70
2023/03/10 05:30:34;;;;;;;12.68;6.10;;;;;;;9.27;64.06;98512.63;4888882;28;124387;-70
2023/03/10 05:33:01;;;;;;;10.98;6.32;;;;;;;9.26;63.88;98510.91;4888591;28;114052;-71
2023/03/10 05:35:28;;;;;;;12.88;6.47;;;;;;;9.27;64.32;98509.97;4874899;28;113807;-71
2023/03/10 05:37:57;;;;;;;9.95;4.50;;;;;;;9.28;64.31;98514.28;4885275;28;123554;-71
2023/03/10 05:40:25;;;;;;;8.30;3.88;;;;;;;9.31;64.68;98516.69;4887077;28;123277;-71
2023/03/10 05:42:52;;;;;;;10.35;4.53;;;;;;;9.35;64.56;98515.50;4889038;28;114787;-70
2023/03/10 05:45:21;;;;;;;8.48;3.65;;;;;;;9.41;64.77;98515.00;4885077;28;112315;-70
2023/03/10 05:47:49;;;;;;;7.15;3.10;;;;;;;9.50;65.10;98519.56;4889056;28;123788;-70
2023/03/10 05:50:18;;;;;;;13.30;3.08;;;;;;;9.64;65.43;98513.19;4886299;28;122102;-71
2023/03/10 05:52:45;;;;;;;11.82;3.03;;;;;;;9.79;65.80;98520.88;4886973;28;114791;-70
2023/03/10 05:55:17;;;;;;;3.97;2.15;;;;;;;9.91;65.74;98518.13;4888953;28;114841;-71
2023/03/10 05:57:45;;;;;;;7.25;1.80;;;;;;;10.03;65.59;98520.75;4886134;28;123885;-71
2023/03/10 06:00:14;;;;;;;7.95;2.10;;;;;;;10.16;65.76;98521.44;4887981;28;122763;-70
2023/03/10 06:02:45;;;;;;;11.10;2.13;;;;;;;10.27;65.48;98521.41;4882496;28;113437;-71
2023/03/10 06:05:13;;;;;;;7.38;1.85;;;;;;;10.38;65.47;98509.13;4888016;28;113000;-70
2023/03/10 06:07:40;;;;;;;5.32;1.67;;;;;;;10.47;65.36;98513.66;4890503;28;123820;-70
2023/03/10 06:10:09;;;;;;;5.30;1.75;;;;;;;10.58;65.68;98521.56;4888036;28;124088;-71
2023/03/10 06:12:36;;;;;;;6.40;1.75;;;;;;;10.66;65.71;98513.84;4888385;28;113324;-71
2023/03/10 06:15:04;;;;;;;5.97;1.83;;;;;;;10.76;65.62;98507.78;4891676;28;114094;-71
2023/03/10 06:17:31;;;;;;;6.30;1.58;;;;;;;10.83;65.45;98508.94;4889463;28;124026;-70
2023/03/10 06:19:58;;;;;;;7.03;1.85;;;;;;;10.90;65.37;98513.59;4887963;28;124474;-70
2023/03/10 06:22:25;;;;;;;5.47;1.67;;;;;;;10.96;65.42;98514.88;4886889;28;113692;-70
2023/03/10 06:24:52;;;;;;;6.53;1.90;;;;;;;11.03;65.39;98509.91;4888060;28;113827;-70
2023/03/10 06:27:19;;;;;;;9.38;1.90;;;;;;;11.09;65.42;98515.56;4890386;28;123854;-70
2023/03/10 06:29:48;;;;;;;4.75;1.75;;;;;;;11.16;65.65;98515.03;4890715;28;123859;-71
2023/03/10 06:32:15;;;;;;;8.90;1.73;;;;;;;11.21;65.34;98523.44;4885778;28;114559;-71
2023/03/10 06:34:42;;;;;;;7.43;1.90;;;;;;;11.26;65.41;98532.66;4884433;28;112925;-70
2023/03/10 06:37:09;;;;;;;6.10;1.88;;;;;;;11.30;65.28;98533.22;4890444;28;123933;-70
2023/03/10 06:39:38;;;;;;;8.88;1.90;;;;;;;11.35;65.33;98536.31;4886020;28;123020;-70
2023/03/10 06:42:05;;;;;;;7.47;1.70;;;;;;;11.40;65.35;98534.13;4890635;28;115947;-70
2023/03/10 06:44:33;;;;;;;11.50;4.63;;;;;;;11.44;65.23;98530.25;4885316;28;115229;-71
2023/03/10 06:47:03;;;;;;;10.95;6.20;;;;;;;11.44;64.91;98529.41;4878970;28;124756;-71
2023/03/10 06:49:32;;;;;;;13.00;5.50;;;;;;;11.36;64.53;98538.00;4886567;28;124123;-70
2023/03/10 06:51:59;;;;;;;10.77;5.60;;;;;;;11.28;64.55;98540.47;4885200;28;115089;-70
2023/03/10 06:54:26;;;;;;;14.85;5.70;;;;;;;11.23;64.53;98537.38;4884286;28;113567;-70
2023/03/10 06:56:53;;;;;;;18.10;6.63;;;;;;;11.16;64.39;98541.53;4887505;28;124565;-70
2023/03/10 06:59:20;;;;;;;15.52;6.78;;;;;;;11.06;64.14;98537.00;4890405;28;123742;-71
2023/03/10 07:01:47;;;;;;;12.10;6.20;;;;;;;11.00;64.37;98553.41;4887586;28;114144;-71
2023/03/10 07:04:15;;;;;;;14.45;6.70;;;;;;;10.94;64.30;98553.91;4883961;28;113793;-70
2023/03/10 07:06:42;;;;;;;14.27;6.22;;;;;;;10.88;64.27;98554.41;4869770;28;124373;-70
2023/03/10 07:09:09;;;;;;;11.95;6.50;;;;;;;10.82;64.30;98560.22;4884789;28;124623;-71
2023/03/10 07:11:36;;;;;;;14.23;6.78;;;;;;;10.78;64.44;98558.81;4866433;28;113493;-71
2023/03/10 07:14:03;;;;;;;15.48;5.95;;;;;;;10.74;64.51;98557.34;4884010;28;114284;-71
2023/03/10 07:16:30;;;;;;;12.05;6.22;;;;;;;10.70;64.51;98557.63;4883296;28;123735;-70
2023/03/10 07:18:57;;;;;;;15.30;6.45;;;;;;;10.66;64.33;98556.22;4885804;28;123397;-71
2023/03/10 07:21:24;;;;;;;12.38;5.65;;;;;;;10.62;64.26;98560.03;4885046;28;114111;-71
2023/03/10 07:23:51;;;;;;;14.95;6.97;;;;;;;10.61;64.40;98563.69;4890683;28;114983;-71
2023/03/10 07:26:19;;;;;;;11.15;6.15;;;;;;;10.60;64.35;98561.97;4882708;28;125686;-71
2023/03/10 07:28:46;;;;;;;10.52;5.65;;;;;;;10.57;64.50;98567.53;4884849;28;122697;-70
2023/03/10 07:31:15;;;;;;;9.90;5.22;;;;;;;10.54;64.51;98573.06;4876987;28;114293;-70
2023/03/10 07:33:42;;;;;;;9.95;5.50;;;;;;;10.50;64.54;98566.34;4888328;28;115219;-70
2023/03/10 07:36:12;;;;;;;12.77;5.18;;;;;;;10.44;64.50;98583.56;4876595;28;122851;-70
2023/03/10 07:38:39;;;;;;;9.55;5.30;;;;;;;10.42;64.66;98590.81;4882620;28;123345;-70
2023/03/10 07:41:13;;;;;;;10.18;5.70;;;;;;;10.39;64.41;98590.22;4882945;28;114591;-70
2023/03/10 07:43:40;;;;;;;8.73;5.18;;;;;;;10.37;64.26;98584.19;4881023;28;113679;-70
2023/03/10 07:46:10;;;;;;;12.35;5.60;;;;;;;10.31;64.65;98588.19;4881709;28;122944;-70
2023/03/10 07:48:37;;;;;;;10.18;5.40;;;;;;;10.25;64.50;98589.47;4882606;28;124824;-70
2023/03/10 07:51:05;;;;;;;10.63;5.55;;;;;;;10.22;64.44;98584.41;4886096;28;114231;-70
2023/03/10 07:53:32;;;;;;;9.98;5.15;;;;;;;10.16;64.50;98587.56;4891364;28;113839;-70
2023/03/10 07:56:03;;;;;;;11.45;5.60;;;;;;;10.12;64.57;98588.78;4886410;28;124835;-70
2023/03/10 07:58:31;;;;;;;9.40;5.10;;;;;;;10.10;64.39;98590.72;4881325;28;123696;-71
2023/03/10 08:00:59;;;;;;;8.65;4.93;;;;;;;10.08;64.64;98597.91;4886295;28;112425;-70
2023/03/10 08:03:27;;;;;;;11.35;5.53;;;;;;;10.05;64.54;98595.50;4890144;28;114463;-70
2023/03/10 08:05:55;;;;;;;10.48;5.50;;;;;;;10.04;64.57;98596.47;4890097;28;123915;-70
2023/03/10 08:08:22;;;;;;;8.98;5.80;;;;;;;10.02;64.64;98603.69;4891789;28;123741;-70
2023/03/10 08:11:02;;;;;;;10.40;6.15;;;;;;;10.00;64.57;98602.97;4886628;28;113961;-70
2023/03/10 08:13:30;;;;;;;11.23;6.13;;;;;;;9.98;64.41;98607.53;4883794;28;113795;-70
2023/03/10 08:16:01;;;;;;;10.35;6.30;;;;;;;9.95;64.36;98608.63;4889576;28;124829;-71
2023/03/10 08:18:30;;;;;;;12.98;6.70;;;;;;;9.94;64.62;98618.38;4889104;28;124593;-70
2023/03/10 08:20:57;;;;;;;12.00;6.75;;;;;;;9.91;64.47;98626.53;4891320;28;115061;-70
2023/03/10 08:23:25;;;;;;;14.63;7.05;;;;;;;9.88;64.48;98618.81;4888068;28;115139;-71
2023/03/10 08:25:52;;;;;;;13.13;7.05;;;;;;;9.85;64.54;98624.38;4890210;28;124557;-70
2023/03/10 08:28:19;;;;;;;13.35;6.57;;;;;;;9.84;64.53;98627.13;4891244;28;123613;-71
2023/03/10 08:30:46;;;;;;;11.40;6.15;;;;;;;9.81;64.30;98620.25;4890622;28;114379;-70
2023/03/10 08:33:30;;;;;;;11.68;6.70;;;;;;;9.79;64.27;98624.81;4888856;28;114083;-69
2023/03/10 08:36:11;;;;;;;11.23;5.80;;;;;;;9.75;64.36;98618.09;4891111;28;124171;-71
2023/03/10 08:38:38;;;;;;;12.63;6.15;;;;;;;9.72;64.48;98618.34;4875551;28;123843;-70
2023/03/10 08:41:24;;;;;;;11.00;6.15;;;;;;;9.69;64.45;98623.88;4883561;28;113940;-73
2023/03/10 08:43:53;;;;;;;10.13;5.72;;;;;;;9.64;64.38;98616.28;4881053;28;114221;-70
2023/03/10 08:46:21;;;;;;;12.20;5.88;;;;;;;9.64;64.55;98610.97;4897933;28;123670;-70
2023/03/10 08:48:50;;;;;;;11.85;5.95;;;;;;;9.63;64.44;98619.88;4882883;28;124466;-70
2023/03/10 08:51:18;;;;;;;12.50;6.25;;;;;;;9.62;64.40;98612.06;4887468;28;114000;-70
2023/03/10 08:53:47;;;;;;;11.98;5.65;;;;;;;9.63;64.57;98619.06;4888095;28;114311;-71
2023/03/10 08:56:15;;;;;;;9.75;5.30;;;;;;;9.64;64.72;98615.44;4891457;28;124638;-70
2023/03/10 08:58:43;;;;;;;9.43;5.10;;;;;;;9.63;64.67;98619.88;4883458;28;124825;-70
2023/03/10 09:01:13;;;;;;;9.30;5.40;;;;;;;9.61;64.48;98613.06;4883329;28;114553;-70
2023/03/10 09:03:43;;;;;;;15.52;5.80;;;;;;;9.60;64.59;98608.72;4890934;28;113151;-69
2023/03/10 09:06:10;;;;;;;9.85;5.60;;;;;;;9.60;64.86;98614.00;4881608;28;124029;-70
2023/03/10 09:08:38;;;;;;;9.02;4.78;;;;;;;9.61;64.88;98615.69;4890190;28;124881;-70
2023/03/10 09:11:06;;;;;;;11.98;5.53;;;;;;;9.64;64.73;98615.44;4887276;28;114985;-70
2023/03/10 09:13:33;;;;;;;9.52;5.50;;;;;;;9.68;64.85;98612.47;4891563;28;115216;-70
2023/03/10 09:16:01;;;;;;;9.10;4.93;;;;;;;9.71;64.71;98616.66;4886144;28;123287;-70
2023/03/10 09:18:28;;;;;;;8.48;4.82;;;;;;;9.72;64.79;98618.34;4886061;28;124565;-70
2023/03/10 09:20:55;;;;;;;8.98;5.38;;;;;;;9.74;64.72;98611.13;4888750;28;115065;-70
2023/03/10 09:23:22;;;;;;;11.45;5.07;;;;;;;9.79;64.89;98618.69;4882118;28;113766;-70
2023/03/10 09:25:49;;;;;;;9.25;5.40;;;;;;;9.84;65.11;98606.81;4887528;28;123969;-70
2023/03/10 09:28:17;;;;;;;8.10;4.70;;;;;;;9.90;65.06;98611.59;4885831;28;125163;-70
2023/03/10 09:30:46;;;;;;;9.43;4.05;;;;;;;9.99;65.17;98611.88;4882939;28;114441;-69
2023/03/10 09:33:16;;;;;;;7.68;3.55;;;;;;;10.05;64.85;98614.03;4882088;28;114403;-70
2023/03/10 09:35:44;;;;;;;5.55;3.42;;;;;;;10.10;65.20;98614.50;4882044;28;126005;-70
2023/03/10 09:38:29;;;;;;;8.13;3.70;;;;;;;10.15;64.90;98614.97;4880917;28;123595;-70
2023/03/10 09:41:12;;;;;;;6.32;3.50;;;;;;;10.16;64.74;98616.66;4890647;28;113218;-70
2023/03/10 09:43:49;;;;;;;6.75;3.72;;;;;;;10.18;64.88;98614.72;4879359;28;113942;-70
2023/03/10 09:46:24;;;;;;;7.60;4.00;;;;;;;10.19;64.76;98605.84;4890094;28;123813;-70
2023/03/10 09:49:03;;;;;;;7.53;3.78;;;;;;;10.19;64.88;98611.13;4890480;28;123777;-70
2023/03/10 09:51:30;;;;;;;7.53;4.20;;;;;;;10.19;64.81;98600.56;4891099;28;114096;-70
2023/03/10 09:54:07;;;;;;;6.68;3.75;;;;;;;10.20;64.84;98604.03;4892379;28;113968;-70
2023/03/10 09:56:35;;;;;;;8.48;3.65;;;;;;;10.20;64.69;98599.56;4875849;28;124420;-70
2023/03/10 09:59:23;;;;;;;8.50;3.80;;;;;;;10.21;64.83;98603.91;4884581;28;123646;-70
2023/03/10 10:01:52;;;;;;;8.18;4.10;;;;;;;10.23;64.71;98607.28;4888521;28;114909;-70
2023/03/10 10:04:38;;;;;;;7.15;3.83;;;;;;;10.28;65.00;98605.13;4884177;28;115069;-70
2023/03/10 10:07:21;;;;;;;7.65;3.83;;;;;;;10.34;65.04;98603.81;4875516;28;123558;-70
2023/03/10 10:10:10;;;;;;;8.23;3.63;;;;;;;10.41;65.02;98612.09;4880566;28;123755;-71
2023/03/10 10:12:37;;;;;;;8.20;4.03;;;;;;;10.44;64.94;98609.22;4882851;28;114454;-70
2023/03/10 10:15:17;;;;;;;7.78;3.72;;;;;;;10.47;64.82;98611.59;4884758;28;114270;-69
2023/03/10 10:17:56;;;;;;;7.85;4.05;;;;;;;10.51;65.15;98613.06;4870216;28;124105;-70
2023/03/10 10:20:43;;;;;;;7.65;4.18;;;;;;;10.57;65.16;98614.31;4874699;28;123957;-71
2023/03/10 10:23:25;;;;;;;8.43;4.07;;;;;;;10.61;64.92;98616.63;4883002;28;113776;-70
2023/03/10 10:25:53;;;;;;;6.63;4.10;;;;;;;10.65;65.03;98607.47;4876345;28;114275;-70
2023/03/10 10:28:27;;;;;;;8.32;4.28;;;;;;;10.69;64.85;98608.88;4860866;28;124434;-70
2023/03/10 10:31:09;;;;;;;7.05;4.47;;;;;;;10.76;64.75;98619.81;4882457;28;124041;-70
2023/03/10 10:33:54;;;;;;;8.45;4.13;;;;;;;10.81;64.96;98616.78;4888280;28;114047;-71
2023/03/10 10:36:46;;;;;;;7.68;5.00;;;;;;;10.85;65.10;98618.22;4883738;28;114116;-70
2023/03/10 10:39:25;;;;;;;8.60;4.32;;;;;;;10.88;65.20;98641.81;4884267;28;122932;-70
2023/03/10 10:42:11;;;;;;;8.15;4.15;;;;;;;10.97;65.33;98632.28;4871748;28;124152;-71
2023/03/10 10:44:43;;;;;;;7.07;4.00;;;;;;;11.03;65.23;98627.31;4868597;28;115479;-70
2023/03/10 10:47:24;;;;;;;7.93;3.83;;;;;;;11.14;65.09;98625.59;4875311;28;114546;-70
2023/03/10 10:49:52;;;;;;;8.23;4.32;;;;;;;11.20;65.17;98623.25;4886131;28;124322;-70
2023/03/10 10:52:24;;;;;;;8.98;5.05;;;;;;;11.27;65.04;98623.59;4887713;28;123518;-72
2023/03/10 10:54:57;;;;;;;10.13;5.10;;;;;;;11.31;64.90;98619.72;4882958;28;115235;-70
2023/03/10 10:57:31;;;;;;;8.90;4.82;;;;;;;11.36;65.06;98617.53;4891916;28;115135;-70
2023/03/10 11:00:31;;;;;;;9.05;4.45;;;;;;;11.40;65.19;98626.91;4886796;28;124285;-71
2023/03/10 11:02:58;;;;;;;8.20;4.72;;;;;;;11.41;65.10;98615.31;4881722;28;123061;-71
2023/03/10 11:05:36;;;;;;;9.77;4.90;;;;;;;11.45;65.39;98626.50;4873795;28;114822;-71
2023/03/10 11:08:25;;;;;;;8.45;4.53;;;;;;;11.49;65.15;98620.81;4878123;28;113071;-71
2023/03/10 11:11:03;;;;;;;8.15;4.38;;;;;;;11.54;65.21;98625.72;4879126;28;124804;-70
2023/03/10 11:13:50;;;;;;;16.95;4.65;;;;;;;11.60;65.20;98619.06;4892169;28;124650;-71
2023/03/10 11:16:42;;;;;;;9.80;4.57;;;;;;;11.65;65.19;98622.16;4886219;28;114666;-71
2023/03/10 11:19:15;;;;;;;8.27;4.30;;;;;;;11.72;65.10;98623.31;4892359;28;113897;-71
2023/03/10 11:21:47;;;;;;;7.78;4.30;;;;;;;11.78;65.30;98617.47;4888681;28;123914;-71
2023/03/10 11:24:37;;;;;;;9.15;4.75;;;;;;;11.82;65.16;98613.59;4882894;28;124642;-71
2023/03/10 11:27:16;;;;;;;12.48;5.68;;;;;;;11.84;64.92;98611.66;4888084;28;114301;-71
2023/03/10 11:30:05;;;;;;;10.02;5.38;;;;;;;11.85;64.98;98602.72;4879242;28;114460;-71
2023/03/10 11:32:41;;;;;;;12.43;5.63;;;;;;;11.87;65.06;98600.78;4887663;28;124199;-71
2023/03/10 11:35:25;;;;;;;13.60;6.47;;;;;;;11.90;65.22;98593.56;4891930;28;123343;-71
2023/03/10 11:38:12;;;;;;;11.00;5.72;;;;;;;11.95;65.19;98586.06;4892059;28;114191;-71
2023/03/10 11:40:55;;;;;;;10.85;5.30;;;;;;;11.98;65.24;98586.63;4886686;28;114000;-71